sensor_id;sensor_type;location;lat;lon;timestamp;P1;durP1;ratioP1;P2;durP2;ratioP2
73823;SDS011;62154;54.914;73.444;2023-03-01T00:02:05;40.92;;;11.77;;
73823;SDS011;62154;54.914;73.444;2023-03-01T00:04:42;20.67;;;8.82;;
73823;SDS011;62154;54.914;73.444;2023-03-01T00:07:09;46.75;;;15.10;;
73823;SDS011;62154;54.914;73.444;2023-03-01T00:09:37;75.28;;;21.45;;
73823;SDS011;62154;54.914;73.444;2023-03-01T00:12:16;53.38;;;15.30;;
73823;SDS011;62154;54.914;73.444;2023-03-01T00:14:44;81.32;;;27.50;;
73823;SDS011;62154;54.914;73.444;2023-03-01T00:17:11;55.85;;;17.83;;
73823;SDS011;62154;54.914;73.444;2023-03-01T00:19:39;24.40;;;8.88;;
73823;SDS011;62154;54.914;73.444;2023-03-01T00:22:11;9.93;;;5.82;;
73823;SDS011;62154;54.914;73.444;2023-03-01T00:24:39;22.42;;;7.32;;
73823;SDS011;62154;54.914;73.444;2023-03-01T00:27:06;13.43;;;5.65;;
73823;SDS011;62154;54.914;73.444;2023-03-01T00:29:44;32.20;;;11.10;;
73823;SDS011;62154;54.914;73.444;2023-03-01T00:32:16;38.38;;;13.25;;
73823;SDS011;62154;54.914;73.444;2023-03-01T00:34:44;10.98;;;4.95;;
73823;SDS011;62154;54.914;73.444;2023-03-01T00:37:20;18.27;;;6.93;;
73823;SDS011;62154;54.914;73.444;2023-03-01T00:39:49;32.47;;;13.13;;
73823;SDS011;62154;54.914;73.444;2023-03-01T00:42:16;43.03;;;11.15;;
73823;SDS011;62154;54.914;73.444;2023-03-01T00:44:49;30.42;;;9.35;;
73823;SDS011;62154;54.914;73.444;2023-03-01T00:47:17;25.55;;;9.43;;
73823;SDS011;62154;54.914;73.444;2023-03-01T00:49:44;24.00;;;9.43;;
73823;SDS011;62154;54.914;73.444;2023-03-01T00:52:12;11.15;;;4.45;;
73823;SDS011;62154;54.914;73.444;2023-03-01T00:54:39;19.45;;;7.65;;
73823;SDS011;62154;54.914;73.444;2023-03-01T00:57:10;9.90;;;5.43;;
73823;SDS011;62154;54.914;73.444;2023-03-01T00:59:45;47.28;;;17.02;;
73823;SDS011;62154;54.914;73.444;2023-03-01T01:02:13;39.83;;;16.13;;
73823;SDS011;62154;54.914;73.444;2023-03-01T01:04:40;16.42;;;6.40;;
73823;SDS011;62154;54.914;73.444;2023-03-01T01:07:08;20.45;;;8.60;;
73823;SDS011;62154;54.914;73.444;2023-03-01T01:09:40;14.48;;;6.47;;
73823;SDS011;62154;54.914;73.444;2023-03-01T01:12:08;7.90;;;4.30;;
73823;SDS011;62154;54.914;73.444;2023-03-01T01:14:36;8.77;;;4.55;;
73823;SDS011;62154;54.914;73.444;2023-03-01T01:17:03;6.75;;;4.07;;
73823;SDS011;62154;54.914;73.444;2023-03-01T01:19:31;11.35;;;5.75;;
73823;SDS011;62154;54.914;73.444;2023-03-01T01:21:59;7.72;;;4.32;;
73823;SDS011;62154;54.914;73.444;2023-03-01T01:24:26;10.70;;;5.95;;
73823;SDS011;62154;54.914;73.444;2023-03-01T01:26:53;8.38;;;4.13;;
73823;SDS011;62154;54.914;73.444;2023-03-01T01:29:20;11.96;;;6.02;;
73823;SDS011;62154;54.914;73.444;2023-03-01T01:31:48;11.52;;;6.55;;
73823;SDS011;62154;54.914;73.444;2023-03-01T01:34:17;34.70;;;14.30;;
73823;SDS011;62154;54.914;73.444;2023-03-01T01:36:48;18.83;;;8.23;;
73823;SDS011;62154;54.914;73.444;2023-03-01T01:39:23;70.00;;;25.18;;
73823;SDS011;62154;54.914;73.444;2023-03-01T01:41:53;81.80;;;30.38;;
73823;SDS011;62154;54.914;73.444;2023-03-01T01:44:26;77.15;;;23.80;;
73823;SDS011;62154;54.914;73.444;2023-03-01T01:46:56;38.78;;;14.32;;
73823;SDS011;62154;54.914;73.444;2023-03-01T01:49:47;22.00;;;10.23;;
73823;SDS011;62154;54.914;73.444;2023-03-01T01:52:29;43.88;;;18.50;;
73823;SDS011;62154;54.914;73.444;2023-03-01T01:55:12;32.25;;;15.57;;
73823;SDS011;62154;54.914;73.444;2023-03-01T01:57:49;37.83;;;18.38;;
73823;SDS011;62154;54.914;73.444;2023-03-01T02:00:26;10.57;;;6.13;;
73823;SDS011;62154;54.914;73.444;2023-03-01T02:03:02;8.00;;;5.00;;
73823;SDS011;62154;54.914;73.444;2023-03-01T02:08:33;10.52;;;5.82;;
73823;SDS011;62154;54.914;73.444;2023-03-01T02:11:15;9.25;;;5.78;;
73823;SDS011;62154;54.914;73.444;2023-03-01T02:13:44;10.02;;;5.78;;
73823;SDS011;62154;54.914;73.444;2023-03-01T02:16:23;9.27;;;5.85;;
73823;SDS011;62154;54.914;73.444;2023-03-01T02:18:58;9.65;;;4.97;;
73823;SDS011;62154;54.914;73.444;2023-03-01T02:24:23;8.93;;;5.20;;
73823;SDS011;62154;54.914;73.444;2023-03-01T02:27:18;9.60;;;5.90;;
73823;SDS011;62154;54.914;73.444;2023-03-01T02:29:55;10.24;;;5.59;;
73823;SDS011;62154;54.914;73.444;2023-03-01T02:32:23;11.90;;;6.38;;
73823;SDS011;62154;54.914;73.444;2023-03-01T02:34:52;11.45;;;6.22;;
73823;SDS011;62154;54.914;73.444;2023-03-01T02:37:22;9.55;;;5.97;;
73823;SDS011;62154;54.914;73.444;2023-03-01T02:39:58;10.04;;;5.56;;
73823;SDS011;62154;54.914;73.444;2023-03-01T02:42:36;9.95;;;5.28;;
73823;SDS011;62154;54.914;73.444;2023-03-01T02:45:11;27.63;;;15.00;;
73823;SDS011;62154;54.914;73.444;2023-03-01T02:47:38;31.48;;;16.75;;
73823;SDS011;62154;54.914;73.444;2023-03-01T02:55:35;58.88;;;26.80;;
73823;SDS011;62154;54.914;73.444;2023-03-01T02:58:03;17.35;;;10.07;;
73823;SDS011;62154;54.914;73.444;2023-03-01T03:00:35;18.80;;;11.02;;
73823;SDS011;62154;54.914;73.444;2023-03-01T03:03:21;67.60;;;32.17;;
73823;SDS011;62154;54.914;73.444;2023-03-01T03:05:48;35.80;;;17.50;;
73823;SDS011;62154;54.914;73.444;2023-03-01T03:08:16;31.25;;;14.88;;
73823;SDS011;62154;54.914;73.444;2023-03-01T03:10:51;28.15;;;14.27;;
73823;SDS011;62154;54.914;73.444;2023-03-01T03:13:19;25.85;;;14.15;;
73823;SDS011;62154;54.914;73.444;2023-03-01T03:15:48;26.83;;;14.10;;
73823;SDS011;62154;54.914;73.444;2023-03-01T03:18:16;19.17;;;12.27;;
73823;SDS011;62154;54.914;73.444;2023-03-01T03:20:45;15.18;;;7.45;;
73823;SDS011;62154;54.914;73.444;2023-03-01T03:23:13;20.50;;;11.40;;
73823;SDS011;62154;54.914;73.444;2023-03-01T03:25:41;17.30;;;10.02;;
73823;SDS011;62154;54.914;73.444;2023-03-01T03:28:18;12.23;;;8.07;;
73823;SDS011;62154;54.914;73.444;2023-03-01T03:30:46;12.45;;;7.97;;
73823;SDS011;62154;54.914;73.444;2023-03-01T03:33:13;9.95;;;6.28;;
73823;SDS011;62154;54.914;73.444;2023-03-01T03:35:42;37.50;;;18.10;;
73823;SDS011;62154;54.914;73.444;2023-03-01T03:38:22;20.38;;;10.25;;
73823;SDS011;62154;54.914;73.444;2023-03-01T03:41:02;21.40;;;10.50;;
73823;SDS011;62154;54.914;73.444;2023-03-01T03:43:31;15.43;;;8.43;;
73823;SDS011;62154;54.914;73.444;2023-03-01T03:46:00;28.83;;;15.13;;
73823;SDS011;62154;54.914;73.444;2023-03-01T03:48:44;22.80;;;9.70;;
73823;SDS011;62154;54.914;73.444;2023-03-01T03:51:24;20.30;;;10.10;;
73823;SDS011;62154;54.914;73.444;2023-03-01T03:54:03;17.20;;;9.13;;
73823;SDS011;62154;54.914;73.444;2023-03-01T03:56:31;16.88;;;8.55;;
73823;SDS011;62154;54.914;73.444;2023-03-01T03:58:58;12.88;;;6.30;;
73823;SDS011;62154;54.914;73.444;2023-03-01T04:01:25;14.00;;;7.10;;
73823;SDS011;62154;54.914;73.444;2023-03-01T04:03:53;14.70;;;7.45;;
73823;SDS011;62154;54.914;73.444;2023-03-01T04:06:21;14.70;;;7.85;;
73823;SDS011;62154;54.914;73.444;2023-03-01T04:08:48;12.27;;;5.57;;
73823;SDS011;62154;54.914;73.444;2023-03-01T04:11:28;10.13;;;5.35;;
73823;SDS011;62154;54.914;73.444;2023-03-01T04:13:56;15.77;;;7.47;;
73823;SDS011;62154;54.914;73.444;2023-03-01T04:16:25;14.57;;;7.38;;
73823;SDS011;62154;54.914;73.444;2023-03-01T04:18:53;12.55;;;7.57;;
73823;SDS011;62154;54.914;73.444;2023-03-01T04:21:21;17.45;;;8.15;;
73823;SDS011;62154;54.914;73.444;2023-03-01T04:23:48;21.00;;;10.30;;
73823;SDS011;62154;54.914;73.444;2023-03-01T04:26:28;11.75;;;5.93;;
73823;SDS011;62154;54.914;73.444;2023-03-01T04:28:56;19.70;;;10.27;;
73823;SDS011;62154;54.914;73.444;2023-03-01T04:31:23;30.98;;;16.90;;
73823;SDS011;62154;54.914;73.444;2023-03-01T04:33:52;15.00;;;8.02;;
73823;SDS011;62154;54.914;73.444;2023-03-01T04:36:27;44.85;;;21.25;;
73823;SDS011;62154;54.914;73.444;2023-03-01T04:38:56;49.80;;;23.60;;
73823;SDS011;62154;54.914;73.444;2023-03-01T04:41:26;27.50;;;17.75;;
73823;SDS011;62154;54.914;73.444;2023-03-01T04:43:53;11.52;;;6.90;;
73823;SDS011;62154;54.914;73.444;2023-03-01T04:46:21;9.85;;;5.75;;
73823;SDS011;62154;54.914;73.444;2023-03-01T04:48:48;9.43;;;5.90;;
73823;SDS011;62154;54.914;73.444;2023-03-01T04:51:25;15.40;;;7.25;;
73823;SDS011;62154;54.914;73.444;2023-03-01T04:53:57;14.88;;;7.32;;
73823;SDS011;62154;54.914;73.444;2023-03-01T04:56:27;10.40;;;6.93;;
73823;SDS011;62154;54.914;73.444;2023-03-01T04:58:54;15.27;;;8.40;;
73823;SDS011;62154;54.914;73.444;2023-03-01T05:01:30;17.65;;;10.10;;
73823;SDS011;62154;54.914;73.444;2023-03-01T05:03:58;17.65;;;10.98;;
73823;SDS011;62154;54.914;73.444;2023-03-01T05:06:29;16.52;;;9.90;;
73823;SDS011;62154;54.914;73.444;2023-03-01T05:08:56;30.35;;;15.82;;
73823;SDS011;62154;54.914;73.444;2023-03-01T05:11:24;26.97;;;12.50;;
73823;SDS011;62154;54.914;73.444;2023-03-01T05:13:51;36.60;;;15.77;;
73823;SDS011;62154;54.914;73.444;2023-03-01T05:16:32;35.80;;;13.90;;
73823;SDS011;62154;54.914;73.444;2023-03-01T05:19:05;40.47;;;18.02;;
73823;SDS011;62154;54.914;73.444;2023-03-01T05:21:38;33.45;;;17.25;;
73823;SDS011;62154;54.914;73.444;2023-03-01T05:24:25;75.53;;;24.45;;
73823;SDS011;62154;54.914;73.444;2023-03-01T05:27:03;67.97;;;23.10;;
73823;SDS011;62154;54.914;73.444;2023-03-01T05:29:31;55.85;;;24.23;;
73823;SDS011;62154;54.914;73.444;2023-03-01T05:32:11;34.55;;;14.52;;
73823;SDS011;62154;54.914;73.444;2023-03-01T05:34:42;62.88;;;23.02;;
73823;SDS011;62154;54.914;73.444;2023-03-01T05:37:13;54.08;;;20.45;;
73823;SDS011;62154;54.914;73.444;2023-03-01T05:39:41;58.15;;;19.13;;
73823;SDS011;62154;54.914;73.444;2023-03-01T05:42:10;26.58;;;10.98;;
73823;SDS011;62154;54.914;73.444;2023-03-01T05:44:38;81.63;;;26.10;;
73823;SDS011;62154;54.914;73.444;2023-03-01T05:47:15;16.98;;;9.93;;
73823;SDS011;62154;54.914;73.444;2023-03-01T05:49:42;66.55;;;23.13;;
73823;SDS011;62154;54.914;73.444;2023-03-01T05:52:10;57.60;;;19.30;;
73823;SDS011;62154;54.914;73.444;2023-03-01T05:54:37;31.95;;;12.88;;
73823;SDS011;62154;54.914;73.444;2023-03-01T05:57:07;39.25;;;14.73;;
73823;SDS011;62154;54.914;73.444;2023-03-01T05:59:34;43.10;;;16.98;;
73823;SDS011;62154;54.914;73.444;2023-03-01T06:02:01;59.90;;;20.70;;
73823;SDS011;62154;54.914;73.444;2023-03-01T06:04:36;45.60;;;17.35;;
73823;SDS011;62154;54.914;73.444;2023-03-01T06:07:03;42.45;;;14.20;;
73823;SDS011;62154;54.914;73.444;2023-03-01T06:09:30;48.53;;;15.18;;
73823;SDS011;62154;54.914;73.444;2023-03-01T06:12:00;38.50;;;13.10;;
73823;SDS011;62154;54.914;73.444;2023-03-01T06:14:28;44.22;;;14.48;;
73823;SDS011;62154;54.914;73.444;2023-03-01T06:16:55;31.00;;;12.77;;
73823;SDS011;62154;54.914;73.444;2023-03-01T06:19:22;26.38;;;12.63;;
73823;SDS011;62154;54.914;73.444;2023-03-01T06:22:01;21.62;;;11.65;;
73823;SDS011;62154;54.914;73.444;2023-03-01T06:24:37;39.22;;;17.13;;
73823;SDS011;62154;54.914;73.444;2023-03-01T06:27:05;23.10;;;12.52;;
73823;SDS011;62154;54.914;73.444;2023-03-01T06:29:33;23.05;;;12.15;;
73823;SDS011;62154;54.914;73.444;2023-03-01T06:32:02;39.58;;;18.80;;
73823;SDS011;62154;54.914;73.444;2023-03-01T06:34:30;24.02;;;12.35;;
73823;SDS011;62154;54.914;73.444;2023-03-01T06:37:00;32.70;;;16.27;;
73823;SDS011;62154;54.914;73.444;2023-03-01T06:39:32;17.35;;;10.27;;
73823;SDS011;62154;54.914;73.444;2023-03-01T06:41:59;27.70;;;16.25;;
73823;SDS011;62154;54.914;73.444;2023-03-01T06:44:34;32.90;;;18.65;;
73823;SDS011;62154;54.914;73.444;2023-03-01T06:47:04;28.20;;;15.40;;
73823;SDS011;62154;54.914;73.444;2023-03-01T06:49:31;31.58;;;18.33;;
73823;SDS011;62154;54.914;73.444;2023-03-01T06:52:05;52.80;;;27.40;;
73823;SDS011;62154;54.914;73.444;2023-03-01T06:54:33;50.40;;;26.83;;
73823;SDS011;62154;54.914;73.444;2023-03-01T06:57:13;42.58;;;26.90;;
73823;SDS011;62154;54.914;73.444;2023-03-01T06:59:40;21.00;;;12.73;;
73823;SDS011;62154;54.914;73.444;2023-03-01T07:02:10;19.20;;;11.68;;
73823;SDS011;62154;54.914;73.444;2023-03-01T07:04:41;20.05;;;11.73;;
73823;SDS011;62154;54.914;73.444;2023-03-01T07:07:09;17.90;;;10.60;;
73823;SDS011;62154;54.914;73.444;2023-03-01T07:09:36;18.13;;;11.73;;
73823;SDS011;62154;54.914;73.444;2023-03-01T07:12:08;18.10;;;11.63;;
73823;SDS011;62154;54.914;73.444;2023-03-01T07:14:45;21.20;;;11.77;;
73823;SDS011;62154;54.914;73.444;2023-03-01T07:17:12;18.73;;;13.10;;
73823;SDS011;62154;54.914;73.444;2023-03-01T07:19:39;18.10;;;10.38;;
73823;SDS011;62154;54.914;73.444;2023-03-01T07:22:06;16.25;;;10.50;;
73823;SDS011;62154;54.914;73.444;2023-03-01T07:24:40;15.23;;;10.88;;
73823;SDS011;62154;54.914;73.444;2023-03-01T07:27:07;19.83;;;11.30;;
73823;SDS011;62154;54.914;73.444;2023-03-01T07:29:35;20.38;;;11.80;;
73823;SDS011;62154;54.914;73.444;2023-03-01T07:32:09;19.10;;;9.93;;
73823;SDS011;62154;54.914;73.444;2023-03-01T07:34:47;18.90;;;10.68;;
73823;SDS011;62154;54.914;73.444;2023-03-01T07:37:14;18.40;;;10.57;;
73823;SDS011;62154;54.914;73.444;2023-03-01T07:39:41;16.02;;;9.65;;
73823;SDS011;62154;54.914;73.444;2023-03-01T07:42:08;18.98;;;10.07;;
73823;SDS011;62154;54.914;73.444;2023-03-01T07:44:36;17.35;;;10.13;;
73823;SDS011;62154;54.914;73.444;2023-03-01T07:47:03;17.10;;;9.63;;
73823;SDS011;62154;54.914;73.444;2023-03-01T07:49:43;26.30;;;13.55;;
73823;SDS011;62154;54.914;73.444;2023-03-01T07:52:11;16.25;;;10.60;;
73823;SDS011;62154;54.914;73.444;2023-03-01T07:54:41;20.00;;;12.70;;
73823;SDS011;62154;54.914;73.444;2023-03-01T07:57:11;18.38;;;11.15;;
73823;SDS011;62154;54.914;73.444;2023-03-01T07:59:48;15.52;;;9.63;;
73823;SDS011;62154;54.914;73.444;2023-03-01T08:02:26;15.00;;;8.32;;
73823;SDS011;62154;54.914;73.444;2023-03-01T08:04:53;17.30;;;8.67;;
73823;SDS011;62154;54.914;73.444;2023-03-01T08:07:30;13.73;;;8.43;;
73823;SDS011;62154;54.914;73.444;2023-03-01T08:09:57;14.45;;;8.18;;
73823;SDS011;62154;54.914;73.444;2023-03-01T08:12:25;16.38;;;8.82;;
73823;SDS011;62154;54.914;73.444;2023-03-01T08:14:54;13.45;;;7.57;;
73823;SDS011;62154;54.914;73.444;2023-03-01T08:17:21;14.73;;;8.55;;
73823;SDS011;62154;54.914;73.444;2023-03-01T08:19:49;19.80;;;9.98;;
73823;SDS011;62154;54.914;73.444;2023-03-01T08:22:16;14.48;;;8.00;;
73823;SDS011;62154;54.914;73.444;2023-03-01T08:24:44;13.07;;;8.05;;
73823;SDS011;62154;54.914;73.444;2023-03-01T08:27:11;14.90;;;8.38;;
73823;SDS011;62154;54.914;73.444;2023-03-01T08:29:49;12.35;;;7.65;;
73823;SDS011;62154;54.914;73.444;2023-03-01T08:32:21;20.05;;;10.57;;
73823;SDS011;62154;54.914;73.444;2023-03-01T08:34:51;19.85;;;10.63;;
73823;SDS011;62154;54.914;73.444;2023-03-01T08:37:18;25.30;;;13.57;;
73823;SDS011;62154;54.914;73.444;2023-03-01T08:39:55;12.88;;;7.78;;
73823;SDS011;62154;54.914;73.444;2023-03-01T08:42:32;17.55;;;7.15;;
73823;SDS011;62154;54.914;73.444;2023-03-01T08:45:00;12.77;;;7.68;;
73823;SDS011;62154;54.914;73.444;2023-03-01T08:47:33;13.50;;;7.80;;
73823;SDS011;62154;54.914;73.444;2023-03-01T08:50:01;15.40;;;7.28;;
73823;SDS011;62154;54.914;73.444;2023-03-01T08:52:32;11.85;;;7.63;;
73823;SDS011;62154;54.914;73.444;2023-03-01T08:55:04;12.55;;;7.68;;
73823;SDS011;62154;54.914;73.444;2023-03-01T08:57:43;12.70;;;7.10;;
73823;SDS011;62154;54.914;73.444;2023-03-01T09:00:19;14.10;;;7.32;;
73823;SDS011;62154;54.914;73.444;2023-03-01T09:02:54;20.63;;;11.95;;
73823;SDS011;62154;54.914;73.444;2023-03-01T09:05:22;14.93;;;9.35;;
73823;SDS011;62154;54.914;73.444;2023-03-01T09:07:51;18.80;;;10.10;;
73823;SDS011;62154;54.914;73.444;2023-03-01T09:10:23;16.50;;;9.63;;
73823;SDS011;62154;54.914;73.444;2023-03-01T09:12:51;17.63;;;9.23;;
73823;SDS011;62154;54.914;73.444;2023-03-01T09:15:26;16.42;;;10.18;;
73823;SDS011;62154;54.914;73.444;2023-03-01T09:17:53;16.23;;;9.15;;
73823;SDS011;62154;54.914;73.444;2023-03-01T09:20:21;17.23;;;8.93;;
73823;SDS011;62154;54.914;73.444;2023-03-01T09:22:48;14.73;;;8.77;;
73823;SDS011;62154;54.914;73.444;2023-03-01T09:25:16;19.83;;;10.00;;
73823;SDS011;62154;54.914;73.444;2023-03-01T09:27:51;14.88;;;9.65;;
73823;SDS011;62154;54.914;73.444;2023-03-01T09:30:21;25.85;;;11.25;;
73823;SDS011;62154;54.914;73.444;2023-03-01T09:32:49;17.67;;;9.98;;
73823;SDS011;62154;54.914;73.444;2023-03-01T09:35:16;15.35;;;8.57;;
73823;SDS011;62154;54.914;73.444;2023-03-01T09:37:44;15.05;;;8.13;;
73823;SDS011;62154;54.914;73.444;2023-03-01T09:40:15;13.75;;;7.65;;
73823;SDS011;62154;54.914;73.444;2023-03-01T09:42:49;13.73;;;8.05;;
73823;SDS011;62154;54.914;73.444;2023-03-01T09:45:38;14.25;;;8.27;;
73823;SDS011;62154;54.914;73.444;2023-03-01T09:48:13;12.90;;;7.55;;
73823;SDS011;62154;54.914;73.444;2023-03-01T09:50:54;21.13;;;11.57;;
73823;SDS011;62154;54.914;73.444;2023-03-01T09:53:32;18.65;;;12.07;;
73823;SDS011;62154;54.914;73.444;2023-03-01T09:59:03;21.98;;;12.00;;
73823;SDS011;62154;54.914;73.444;2023-03-01T10:07:27;18.88;;;11.48;;
73823;SDS011;62154;54.914;73.444;2023-03-01T10:10:18;17.58;;;10.02;;
73823;SDS011;62154;54.914;73.444;2023-03-01T10:12:53;20.60;;;9.65;;
73823;SDS011;62154;54.914;73.444;2023-03-01T10:15:30;16.30;;;8.77;;
73823;SDS011;62154;54.914;73.444;2023-03-01T10:18:09;16.10;;;9.73;;
73823;SDS011;62154;54.914;73.444;2023-03-01T10:23:40;18.00;;;10.18;;
73823;SDS011;62154;54.914;73.444;2023-03-01T10:31:27;14.30;;;9.02;;
73823;SDS011;62154;54.914;73.444;2023-03-01T10:34:25;18.65;;;8.90;;
73823;SDS011;62154;54.914;73.444;2023-03-01T10:37:09;15.48;;;8.25;;
73823;SDS011;62154;54.914;73.444;2023-03-01T10:42:39;16.15;;;9.23;;
73823;SDS011;62154;54.914;73.444;2023-03-01T10:50:46;18.75;;;8.80;;
73823;SDS011;62154;54.914;73.444;2023-03-01T10:53:23;14.27;;;9.32;;
73823;SDS011;62154;54.914;73.444;2023-03-01T10:56:05;17.67;;;9.35;;
73823;SDS011;62154;54.914;73.444;2023-03-01T10:58:39;15.07;;;8.95;;
73823;SDS011;62154;54.914;73.444;2023-03-01T11:03:55;22.92;;;12.82;;
73823;SDS011;62154;54.914;73.444;2023-03-01T11:06:38;30.33;;;18.70;;
73823;SDS011;62154;54.914;73.444;2023-03-01T11:09:13;18.98;;;11.25;;
73823;SDS011;62154;54.914;73.444;2023-03-01T11:11:59;17.15;;;9.75;;
73823;SDS011;62154;54.914;73.444;2023-03-01T11:14:29;17.95;;;9.68;;
73823;SDS011;62154;54.914;73.444;2023-03-01T11:17:15;20.15;;;10.35;;
73823;SDS011;62154;54.914;73.444;2023-03-01T11:19:44;20.35;;;9.98;;
73823;SDS011;62154;54.914;73.444;2023-03-01T11:22:29;22.85;;;12.63;;
73823;SDS011;62154;54.914;73.444;2023-03-01T11:25:07;22.66;;;12.71;;
73823;SDS011;62154;54.914;73.444;2023-03-01T11:27:43;18.77;;;10.48;;
73823;SDS011;62154;54.914;73.444;2023-03-01T11:30:31;17.23;;;10.15;;
73823;SDS011;62154;54.914;73.444;2023-03-01T11:35:41;16.77;;;9.02;;
73823;SDS011;62154;54.914;73.444;2023-03-01T11:38:24;24.83;;;12.27;;
73823;SDS011;62154;54.914;73.444;2023-03-01T11:48:56;18.95;;;9.73;;
73823;SDS011;62154;54.914;73.444;2023-03-01T12:00:52;33.88;;;11.90;;
73823;SDS011;62154;54.914;73.444;2023-03-01T12:06:42;23.02;;;10.98;;
73823;SDS011;62154;54.914;73.444;2023-03-01T12:21:11;21.50;;;10.27;;
73823;SDS011;62154;54.914;73.444;2023-03-01T12:26:31;19.67;;;10.30;;
73823;SDS011;62154;54.914;73.444;2023-03-01T12:40:21;24.10;;;11.55;;
73823;SDS011;62154;54.914;73.444;2023-03-01T12:48:51;24.77;;;13.85;;
73823;SDS011;62154;54.914;73.444;2023-03-01T12:51:38;19.90;;;11.50;;
73823;SDS011;62154;54.914;73.444;2023-03-01T12:57:02;21.67;;;11.15;;
73823;SDS011;62154;54.914;73.444;2023-03-01T13:02:45;18.50;;;9.32;;
73823;SDS011;62154;54.914;73.444;2023-03-01T13:08:20;16.85;;;9.43;;
73823;SDS011;62154;54.914;73.444;2023-03-01T13:11:04;18.30;;;8.85;;
73823;SDS011;62154;54.914;73.444;2023-03-01T13:13:42;31.23;;;14.40;;
73823;SDS011;62154;54.914;73.444;2023-03-01T13:16:28;21.48;;;11.75;;
73823;SDS011;62154;54.914;73.444;2023-03-01T13:19:11;23.60;;;9.82;;
73823;SDS011;62154;54.914;73.444;2023-03-01T13:21:44;30.47;;;15.17;;
73823;SDS011;62154;54.914;73.444;2023-03-01T13:24:29;23.45;;;13.02;;
73823;SDS011;62154;54.914;73.444;2023-03-01T13:29:46;45.72;;;30.50;;
73823;SDS011;62154;54.914;73.444;2023-03-01T13:32:25;69.45;;;41.70;;
73823;SDS011;62154;54.914;73.444;2023-03-01T13:46:56;46.00;;;24.92;;
73823;SDS011;62154;54.914;73.444;2023-03-01T13:58:43;32.63;;;16.00;;
73823;SDS011;62154;54.914;73.444;2023-03-01T14:01:22;27.77;;;13.88;;
73823;SDS011;62154;54.914;73.444;2023-03-01T14:03:51;35.45;;;19.10;;
73823;SDS011;62154;54.914;73.444;2023-03-01T14:06:24;29.40;;;16.17;;
73823;SDS011;62154;54.914;73.444;2023-03-01T14:12:06;38.40;;;17.58;;
73823;SDS011;62154;54.914;73.444;2023-03-01T14:14:45;44.83;;;23.58;;
73823;SDS011;62154;54.914;73.444;2023-03-01T14:18:14;27.73;;;14.70;;
73823;SDS011;62154;54.914;73.444;2023-03-01T14:20:50;25.42;;;14.85;;
73823;SDS011;62154;54.914;73.444;2023-03-01T14:23:23;19.90;;;10.50;;
73823;SDS011;62154;54.914;73.444;2023-03-01T14:25:56;27.05;;;13.50;;
73823;SDS011;62154;54.914;73.444;2023-03-01T14:28:28;25.48;;;12.57;;
73823;SDS011;62154;54.914;73.444;2023-03-01T14:31:00;83.33;;;33.03;;
73823;SDS011;62154;54.914;73.444;2023-03-01T14:33:32;168.73;;;57.08;;
73823;SDS011;62154;54.914;73.444;2023-03-01T14:36:04;40.45;;;21.02;;
73823;SDS011;62154;54.914;73.444;2023-03-01T14:38:39;47.10;;;21.00;;
73823;SDS011;62154;54.914;73.444;2023-03-01T14:41:21;187.70;;;63.67;;
73823;SDS011;62154;54.914;73.444;2023-03-01T14:44:04;176.38;;;64.50;;
73823;SDS011;62154;54.914;73.444;2023-03-01T14:46:44;237.20;;;69.97;;
73823;SDS011;62154;54.914;73.444;2023-03-01T14:49:17;78.93;;;33.67;;
73823;SDS011;62154;54.914;73.444;2023-03-01T14:51:54;154.15;;;49.08;;
73823;SDS011;62154;54.914;73.444;2023-03-01T14:54:46;155.60;;;48.53;;
73823;SDS011;62154;54.914;73.444;2023-03-01T14:57:27;63.70;;;27.23;;
73823;SDS011;62154;54.914;73.444;2023-03-01T14:59:58;105.00;;;31.50;;
73823;SDS011;62154;54.914;73.444;2023-03-01T15:02:40;104.57;;;31.67;;
73823;SDS011;62154;54.914;73.444;2023-03-01T15:05:15;101.03;;;36.60;;
73823;SDS011;62154;54.914;73.444;2023-03-01T15:08:02;92.20;;;31.27;;
73823;SDS011;62154;54.914;73.444;2023-03-01T15:10:37;68.47;;;24.00;;
73823;SDS011;62154;54.914;73.444;2023-03-01T15:15:45;60.47;;;25.77;;
73823;SDS011;62154;54.914;73.444;2023-03-01T15:18:25;83.13;;;29.27;;
73823;SDS011;62154;54.914;73.444;2023-03-01T15:20:54;101.25;;;34.00;;
73823;SDS011;62154;54.914;73.444;2023-03-01T15:23:31;66.68;;;28.70;;
73823;SDS011;62154;54.914;73.444;2023-03-01T15:26:04;102.03;;;35.25;;
73823;SDS011;62154;54.914;73.444;2023-03-01T15:28:42;50.85;;;18.85;;
73823;SDS011;62154;54.914;73.444;2023-03-01T15:31:36;109.22;;;43.65;;
73823;SDS011;62154;54.914;73.444;2023-03-01T15:37:35;60.75;;;23.35;;
73823;SDS011;62154;54.914;73.444;2023-03-01T15:40:25;55.08;;;21.80;;
73823;SDS011;62154;54.914;73.444;2023-03-01T15:43:04;72.03;;;27.38;;
73823;SDS011;62154;54.914;73.444;2023-03-01T15:45:33;75.68;;;25.58;;
73823;SDS011;62154;54.914;73.444;2023-03-01T15:48:13;54.13;;;24.27;;
73823;SDS011;62154;54.914;73.444;2023-03-01T15:50:57;69.65;;;25.10;;
73823;SDS011;62154;54.914;73.444;2023-03-01T15:53:28;68.60;;;25.15;;
73823;SDS011;62154;54.914;73.444;2023-03-01T15:55:56;40.38;;;18.13;;
73823;SDS011;62154;54.914;73.444;2023-03-01T15:58:24;24.92;;;11.68;;
73823;SDS011;62154;54.914;73.444;2023-03-01T16:00:54;27.80;;;13.10;;
73823;SDS011;62154;54.914;73.444;2023-03-01T16:03:25;24.70;;;12.00;;
73823;SDS011;62154;54.914;73.444;2023-03-01T16:06:02;22.17;;;11.98;;
73823;SDS011;62154;54.914;73.444;2023-03-01T16:08:40;25.42;;;11.57;;
73823;SDS011;62154;54.914;73.444;2023-03-01T16:11:19;25.02;;;11.98;;
73823;SDS011;62154;54.914;73.444;2023-03-01T16:13:56;27.52;;;13.23;;
73823;SDS011;62154;54.914;73.444;2023-03-01T16:16:28;62.78;;;22.88;;
73823;SDS011;62154;54.914;73.444;2023-03-01T16:18:57;38.95;;;16.95;;
73823;SDS011;62154;54.914;73.444;2023-03-01T16:21:24;56.80;;;24.10;;
73823;SDS011;62154;54.914;73.444;2023-03-01T16:24:02;56.72;;;27.95;;
73823;SDS011;62154;54.914;73.444;2023-03-01T16:26:29;41.75;;;17.95;;
73823;SDS011;62154;54.914;73.444;2023-03-01T16:28:57;34.45;;;16.25;;
73823;SDS011;62154;54.914;73.444;2023-03-01T16:31:25;51.72;;;23.05;;
73823;SDS011;62154;54.914;73.444;2023-03-01T16:34:05;55.63;;;24.00;;
73823;SDS011;62154;54.914;73.444;2023-03-01T16:36:36;63.42;;;29.05;;
73823;SDS011;62154;54.914;73.444;2023-03-01T16:39:04;52.53;;;24.10;;
73823;SDS011;62154;54.914;73.444;2023-03-01T16:41:33;51.70;;;24.70;;
73823;SDS011;62154;54.914;73.444;2023-03-01T16:44:04;89.80;;;41.65;;
73823;SDS011;62154;54.914;73.444;2023-03-01T16:46:36;56.10;;;24.42;;
73823;SDS011;62154;54.914;73.444;2023-03-01T16:49:04;38.90;;;19.73;;
73823;SDS011;62154;54.914;73.444;2023-03-01T16:51:33;26.27;;;14.23;;
73823;SDS011;62154;54.914;73.444;2023-03-01T16:54:06;19.73;;;10.30;;
73823;SDS011;62154;54.914;73.444;2023-03-01T16:56:34;32.33;;;14.88;;
73823;SDS011;62154;54.914;73.444;2023-03-01T16:59:15;20.50;;;11.02;;
73823;SDS011;62154;54.914;73.444;2023-03-01T17:01:50;50.83;;;20.75;;
73823;SDS011;62154;54.914;73.444;2023-03-01T17:04:17;45.13;;;17.95;;